sensor_id;sensor_type;location;lat;lon;timestamp;temperature;humidity
3402;DHT22;1714;49.756;8.610;2023-04-03T03:35:03;-0.30;99.90
3402;DHT22;1714;49.756;8.610;2023-04-03T03:45:40;-0.30;99.90
3402;DHT22;1714;49.756;8.610;2023-04-03T03:56:16;-0.30;99.90
3402;DHT22;1714;49.756;8.610;2023-04-03T04:06:53;-0.20;99.90
3402;DHT22;1714;49.756;8.610;2023-04-03T04:17:29;-0.20;99.90
3402;DHT22;1714;49.756;8.610;2023-04-03T04:28:05;-0.30;99.90
3402;DHT22;1714;49.756;8.610;2023-04-03T04:38:41;-0.60;99.90
3402;DHT22;1714;49.756;8.610;2023-04-03T04:49:18;-0.40;99.90
3402;DHT22;1714;49.756;8.610;2023-04-03T04:59:54;0.10;99.90
3402;DHT22;1714;49.756;8.610;2023-04-03T05:10:30;0.30;99.90
3402;DHT22;1714;49.756;8.610;2023-04-03T05:21:07;0.50;99.90
3402;DHT22;1714;49.756;8.610;2023-04-03T05:31:42;0.50;99.90
3402;DHT22;1714;49.756;8.610;2023-04-03T05:42:21;0.70;99.90
3402;DHT22;1714;49.756;8.610;2023-04-03T05:52:58;0.80;99.90
3402;DHT22;1714;49.756;8.610;2023-04-03T06:03:37;1.00;99.90
3402;DHT22;1714;49.756;8.610;2023-04-03T06:14:16;1.30;99.90
3402;DHT22;1714;49.756;8.610;2023-04-03T06:24:52;4.10;78.90
3402;DHT22;1714;49.756;8.610;2023-04-03T06:35:29;3.30;60.10
3402;DHT22;1714;49.756;8.610;2023-04-03T06:46:05;3.60;60.10
3402;DHT22;1714;49.756;8.610;2023-04-03T06:56:41;7.70;31.80
3402;DHT22;1714;49.756;8.610;2023-04-03T07:07:17;8.60;18.30
3402;DHT22;1714;49.756;8.610;2023-04-03T07:17:53;11.60;9.10
3402;DHT22;1714;49.756;8.610;2023-04-03T07:28:29;11.80;6.50
3402;DHT22;1714;49.756;8.610;2023-04-03T07:39:05;10.80;8.50
3402;DHT22;1714;49.756;8.610;2023-04-03T07:49:42;11.70;3.60
3402;DHT22;1714;49.756;8.610;2023-04-03T08:00:19;13.50;1.00
3402;DHT22;1714;49.756;8.610;2023-04-03T08:10:54;15.40;1.00
3402;DHT22;1714;49.756;8.610;2023-04-03T08:21:30;11.80;1.00
3402;DHT22;1714;49.756;8.610;2023-04-03T08:32:06;12.30;1.00
3402;DHT22;1714;49.756;8.610;2023-04-03T08:43:14;13.70;1.00
3402;DHT22;1714;49.756;8.610;2023-04-03T08:54:02;11.20;1.00
3402;DHT22;1714;49.756;8.610;2023-04-03T09:04:40;13.40;1.00
3402;DHT22;1714;49.756;8.610;2023-04-03T09:15:22;12.20;1.00
3402;DHT22;1714;49.756;8.610;2023-04-03T09:26:18;9.60;1.00
3402;DHT22;1714;49.756;8.610;2023-04-03T09:36:58;9.60;1.00
3402;DHT22;1714;49.756;8.610;2023-04-03T09:47:36;12.80;1.00
3402;DHT22;1714;49.756;8.610;2023-04-03T09:58:38;13.70;1.00
3402;DHT22;1714;49.756;8.610;2023-04-03T10:09:27;8.80;1.00
3402;DHT22;1714;49.756;8.610;2023-04-03T10:31:14;13.30;1.00
3402;DHT22;1714;49.756;8.610;2023-04-03T11:03:52;8.40;1.00
3402;DHT22;1714;49.756;8.610;2023-04-03T11:14:36;8.80;1.00
3402;DHT22;1714;49.756;8.610;2023-04-03T11:25:20;8.30;1.00
3402;DHT22;1714;49.756;8.610;2023-04-03T11:36:02;8.90;1.00
3402;DHT22;1714;49.756;8.610;2023-04-03T11:46:59;8.30;1.00
3402;DHT22;1714;49.756;8.610;2023-04-03T12:30:26;8.20;1.00
3402;DHT22;1714;49.756;8.610;2023-04-03T12:51:57;8.50;1.00
3402;DHT22;1714;49.756;8.610;2023-04-03T13:02:34;8.50;1.00
3402;DHT22;1714;49.756;8.610;2023-04-03T13:13:14;8.90;1.00
3402;DHT22;1714;49.756;8.610;2023-04-03T13:23:52;8.90;1.00
3402;DHT22;1714;49.756;8.610;2023-04-03T13:34:43;8.90;1.00
3402;DHT22;1714;49.756;8.610;2023-04-03T13:45:24;8.60;1.00
3402;DHT22;1714;49.756;8.610;2023-04-03T13:56:08;8.20;1.00
3402;DHT22;1714;49.756;8.610;2023-04-03T14:06:45;8.30;1.00
3402;DHT22;1714;49.756;8.610;2023-04-03T14:17:23;8.60;1.00
3402;DHT22;1714;49.756;8.610;2023-04-03T14:28:00;8.70;1.00
3402;DHT22;1714;49.756;8.610;2023-04-03T14:38:36;8.80;1.00
3402;DHT22;1714;49.756;8.610;2023-04-03T14:49:15;8.70;1.00
3402;DHT22;1714;49.756;8.610;2023-04-03T14:59:51;8.60;1.00
3402;DHT22;1714;49.756;8.610;2023-04-03T15:10:29;8.70;1.00
3402;DHT22;1714;49.756;8.610;2023-04-03T15:21:05;8.90;1.00
3402;DHT22;1714;49.756;8.610;2023-04-03T15:31:41;8.70;1.00
3402;DHT22;1714;49.756;8.610;2023-04-03T15:42:17;8.60;1.00
3402;DHT22;1714;49.756;8.610;2023-04-03T15:52:53;8.70;1.00
3402;DHT22;1714;49.756;8.610;2023-04-03T16:03:33;8.70;1.00
3402;DHT22;1714;49.756;8.610;2023-04-03T16:14:09;8.60;1.00
3402;DHT22;1714;49.756;8.610;2023-04-03T16:24:45;8.30;1.00
3402;DHT22;1714;49.756;8.610;2023-04-03T16:35:20;8.40;1.00
3402;DHT22;1714;49.756;8.610;2023-04-03T16:45:57;8.10;1.00
3402;DHT22;1714;49.756;8.610;2023-04-03T16:56:32;7.70;1.00
3402;DHT22;1714;49.756;8.610;2023-04-03T17:07:08;7.90;1.00
3402;DHT22;1714;49.756;8.610;2023-04-03T17:17:44;7.60;1.00
3402;DHT22;1714;49.756;8.610;2023-04-03T17:28:23;7.30;1.00
3402;DHT22;1714;49.756;8.610;2023-04-03T17:39:03;7.10;1.00
3402;DHT22;1714;49.756;8.610;2023-04-03T17:49:38;6.90;1.00
3402;DHT22;1714;49.756;8.610;2023-04-03T18:00:14;6.70;1.00
3402;DHT22;1714;49.756;8.610;2023-04-03T18:10:50;6.40;1.00
3402;DHT22;1714;49.756;8.610;2023-04-03T18:21:27;6.10;1.00
3402;DHT22;1714;49.756;8.610;2023-04-03T18:32:03;5.80;1.00
3402;DHT22;1714;49.756;8.610;2023-04-03T18:42:41;5.50;1.00
3402;DHT22;1714;49.756;8.610;2023-04-03T18:53:18;5.40;1.00
3402;DHT22;1714;49.756;8.610;2023-04-03T19:03:53;5.10;1.00
3402;DHT22;1714;49.756;8.610;2023-04-03T19:14:29;5.10;1.00
3402;DHT22;1714;49.756;8.610;2023-04-03T19:25:06;4.90;1.00
3402;DHT22;1714;49.756;8.610;2023-04-03T19:35:42;4.80;1.00
3402;DHT22;1714;49.756;8.610;2023-04-03T19:46:23;4.50;1.00
3402;DHT22;1714;49.756;8.610;2023-04-03T19:57:00;4.30;1.00
3402;DHT22;1714;49.756;8.610;2023-04-03T20:07:36;4.00;1.00
3402;DHT22;1714;49.756;8.610;2023-04-03T20:18:17;4.10;1.00
3402;DHT22;1714;49.756;8.610;2023-04-03T20:28:55;4.10;1.00
3402;DHT22;1714;49.756;8.610;2023-04-03T20:39:31;3.70;1.00
3402;DHT22;1714;49.756;8.610;2023-04-03T20:50:07;3.70;1.00
3402;DHT22;1714;49.756;8.610;2023-04-03T21:00:44;3.60;1.00
3402;DHT22;1714;49.756;8.610;2023-04-03T21:22:33;3.40;1.00
